Time;durP1;ratioP1;P1;durP2;ratioP2;P2;SDS_P1;SDS_P2;PMS_P1;PMS_P2;Temp;Humidity;BMP_temperature;BMP_pressure;BME280_temperature;BME280_humidity;BME280_pressure;Samples;Min_cycle;Max_cycle;Signal;HPM_P1;HPM_P2
2021/10/09 00:04:20;;;;;;;22.60;12.40;;;;;;;2.60;71.33;101714.55;229554;1192;140986;-66
2021/10/09 00:09:27;;;;;;;19.10;13.00;;;;;;;2.61;71.71;101717.13;230449;1192;139884;-67
2021/10/09 00:14:32;;;;;;;19.90;14.00;;;;;;;2.59;71.83;101717.27;230006;1192;139497;-67
2021/10/09 00:19:37;;;;;;;18.00;12.50;;;;;;;2.48;71.36;101711.91;229792;1192;209531;-67
2021/10/09 00:24:42;;;;;;;14.30;9.10;;;;;;;2.32;71.48;101704.05;230601;1192;139605;-68
2021/10/09 00:29:46;;;;;;;19.90;10.60;;;;;;;2.21;71.72;101706.71;229795;1191;139054;-66
2021/10/09 00:34:51;;;;;;;20.70;12.60;;;;;;;2.24;71.82;101707.00;229690;1192;139750;-67
2021/10/09 00:39:56;;;;;;;22.10;14.20;;;;;;;2.25;72.28;101705.66;230013;1192;139936;-67
2021/10/09 00:45:00;;;;;;;17.70;11.30;;;;;;;2.23;72.34;101706.05;229868;1192;139478;-67
2021/10/09 00:50:05;;;;;;;15.50;10.10;;;;;;;2.16;72.28;101705.42;229555;1192;140296;-66
2021/10/09 00:55:11;;;;;;;18.30;10.60;;;;;;;2.05;72.08;101703.89;229176;1192;139384;-66
2021/10/09 01:00:16;;;;;;;19.30;11.90;;;;;;;2.04;72.37;101703.83;229607;1191;139658;-68
2021/10/09 01:05:22;;;;;;;19.90;12.30;;;;;;;2.08;72.85;101706.29;230177;1192;140472;-68
2021/10/09 01:10:27;;;;;;;20.20;11.80;;;;;;;2.16;72.91;101709.79;230724;1192;139235;-66
2021/10/09 01:15:33;;;;;;;22.30;10.90;;;;;;;2.11;72.77;101707.98;229741;1192;139337;-65
2021/10/09 01:20:54;;;;;;;22.80;11.70;;;;;;;2.02;72.99;101705.77;230532;1192;139736;-66
2021/10/09 01:25:59;;;;;;;23.70;12.00;;;;;;;1.91;72.73;101703.33;230215;1191;139068;-66
2021/10/09 01:31:04;;;;;;;23.70;13.10;;;;;;;1.85;72.57;101704.77;231291;1192;140035;-67
2021/10/09 01:36:09;;;;;;;18.50;11.80;;;;;;;1.87;73.01;101705.77;231105;1192;140257;-67
2021/10/09 01:41:13;;;;;;;24.50;13.10;;;;;;;1.92;73.49;101704.48;230565;1190;139101;-65
2021/10/09 01:46:17;;;;;;;18.70;10.20;;;;;;;1.91;73.18;101700.92;230823;1191;140114;-65
2021/10/09 01:51:21;;;;;;;12.30;8.90;;;;;;;1.82;73.23;101701.30;230538;1191;142352;-69
2021/10/09 01:56:26;;;;;;;18.40;10.40;;;;;;;1.73;72.97;101698.60;230784;1191;138917;-65
2021/10/09 02:01:30;;;;;;;15.20;10.40;;;;;;;1.73;73.14;101698.29;230523;1191;140301;-66
2021/10/09 02:06:35;;;;;;;20.00;10.80;;;;;;;1.73;73.32;101696.54;230979;1191;140496;-66
2021/10/09 02:11:42;;;;;;;22.30;10.10;;;;;;;1.66;73.24;101698.63;230570;1192;141245;-66
2021/10/09 02:27:33;;;;;;;20.70;10.20;;;;;;;1.41;73.65;101693.73;229432;1192;141057;-66
2021/10/09 02:32:38;;;;;;;14.70;11.50;;;;;;;1.45;73.82;101692.52;229503;1192;141206;-66
2021/10/09 02:37:42;;;;;;;16.10;12.20;;;;;;;1.51;74.12;101694.01;230034;1191;139462;-65
2021/10/09 02:42:47;;;;;;;18.60;12.00;;;;;;;1.48;74.00;101692.33;229541;1192;139922;-64
2021/10/09 02:47:51;;;;;;;15.90;9.20;;;;;;;1.40;74.17;101692.41;230694;1184;139530;-67
2021/10/09 02:52:56;;;;;;;17.10;12.20;;;;;;;1.32;74.09;101687.64;229822;1192;140591;-66
2021/10/09 02:58:01;;;;;;;19.40;10.50;;;;;;;1.28;74.09;101687.27;229422;1192;141126;-66
2021/10/09 03:03:06;;;;;;;17.20;9.90;;;;;;;1.29;74.04;101687.20;230438;1192;143022;-65
2021/10/09 03:08:12;;;;;;;21.50;12.30;;;;;;;1.29;74.10;101689.52;229987;1192;140271;-64
2021/10/09 03:13:17;;;;;;;18.10;10.70;;;;;;;1.22;74.22;101693.98;230133;1192;139047;-65
2021/10/09 03:18:21;;;;;;;18.00;11.80;;;;;;;1.14;74.37;101695.36;229905;1192;139167;-66
2021/10/09 03:23:25;;;;;;;14.60;9.70;;;;;;;1.09;74.68;101699.20;231227;1192;140184;-66
2021/10/09 03:28:30;;;;;;;17.50;11.60;;;;;;;1.07;74.90;101699.02;230928;1191;139074;-67
2021/10/09 03:33:34;;;;;;;20.30;12.60;;;;;;;1.13;74.39;101699.08;231348;1192;139966;-66
2021/10/09 03:38:39;;;;;;;19.20;12.50;;;;;;;1.15;74.48;101697.36;231114;1192;140424;-66
2021/10/09 03:43:44;;;;;;;21.30;13.60;;;;;;;1.17;74.82;101696.80;231150;1190;138998;-66
2021/10/09 03:54:05;;;;;;;13.60;10.80;;;;;;;1.13;74.68;101701.66;231043;1190;139806;-66
2021/10/09 03:59:10;;;;;;;19.20;11.30;;;;;;;1.12;75.00;101704.77;230757;1191;139294;-65
2021/10/09 04:04:14;;;;;;;18.80;12.50;;;;;;;1.17;74.59;101708.55;230446;1192;139936;-65
2021/10/09 04:09:18;;;;;;;21.40;12.10;;;;;;;1.17;74.73;101710.16;229364;1192;140900;-65
2021/10/09 04:14:23;;;;;;;20.60;13.90;;;;;;;1.10;74.69;101714.07;229414;1190;140820;-65
2021/10/09 04:19:28;;;;;;;17.90;10.40;;;;;;;1.01;75.04;101710.38;229653;1190;139768;-65
2021/10/09 04:24:34;;;;;;;19.50;11.70;;;;;;;0.90;74.97;101708.11;229461;1191;139015;-65
2021/10/09 04:29:38;;;;;;;22.90;11.60;;;;;;;0.86;75.02;101713.73;230074;1190;139419;-64
2021/10/09 04:34:42;;;;;;;23.20;13.50;;;;;;;0.86;75.18;101707.92;229678;1190;139681;-66
2021/10/09 04:39:45;;;;;;;24.30;13.90;;;;;;;0.88;74.88;101712.45;229242;1192;139859;-67
2021/10/09 04:44:50;;;;;;;20.90;14.70;;;;;;;0.85;75.16;101712.40;228676;1192;140156;-67
2021/10/09 04:49:54;;;;;;;25.20;14.40;;;;;;;0.78;75.33;101714.35;229531;1192;139682;-69
2021/10/09 04:54:58;;;;;;;21.10;12.80;;;;;;;0.75;75.63;101712.33;228556;1193;139119;-65
2021/10/09 05:00:04;;;;;;;24.10;12.10;;;;;;;0.74;75.36;101721.87;228955;1192;139149;-65
2021/10/09 05:05:08;;;;;;;23.60;14.70;;;;;;;0.78;75.41;101721.92;229264;1192;139511;-65
2021/10/09 05:10:13;;;;;;;29.40;16.60;;;;;;;0.80;75.52;101719.58;230139;1192;139297;-65
2021/10/09 05:15:42;;;;;;;32.20;17.00;;;;;;;0.85;75.91;101716.40;229428;1192;138958;-66
2021/10/09 05:20:46;;;;;;;21.90;14.80;;;;;;;0.91;75.84;101721.55;230115;1192;139246;-65
2021/10/09 05:25:51;;;;;;;23.60;15.10;;;;;;;0.90;76.03;101719.29;230100;1192;139990;-65
2021/10/09 05:30:57;;;;;;;31.10;14.30;;;;;;;0.94;75.92;101720.74;229497;1192;140225;-64
2021/10/09 05:36:02;;;;;;;30.50;14.90;;;;;;;1.06;76.11;101723.27;229823;1190;141169;-64
2021/10/09 05:41:06;;;;;;;25.40;15.70;;;;;;;1.17;76.16;101725.52;231185;1190;140737;-68
2021/10/09 05:46:10;;;;;;;43.50;23.30;;;;;;;1.23;76.30;101722.02;231423;1184;139951;-67
2021/10/09 07:00:32;;;;;;;25.60;16.50;;;;;;;4.18;76.79;101756.86;230814;1190;139561;-66
2021/10/09 07:05:42;;;;;;;25.60;18.20;;;;;;;4.47;76.65;101759.05;229355;1192;140523;-65
2021/10/09 07:10:46;;;;;;;25.70;13.60;;;;;;;4.74;76.70;101759.42;230310;1192;140445;-65
2021/10/09 07:15:51;;;;;;;27.70;17.40;;;;;;;4.97;76.47;101762.62;229871;1192;139278;-66
2021/10/09 07:20:57;;;;;;;25.80;15.20;;;;;;;5.20;75.88;101764.14;231245;1192;139821;-65
2021/10/09 07:26:07;;;;;;;17.50;13.20;;;;;;;5.47;75.43;101766.06;230667;1192;140431;-65
2021/10/09 07:31:11;;;;;;;21.00;12.60;;;;;;;5.68;75.10;101773.02;230966;1192;140672;-67
2021/10/09 07:36:16;;;;;;;15.60;12.10;;;;;;;5.90;74.88;101772.27;231165;1192;139799;-66
2021/10/09 07:41:21;;;;;;;14.10;10.70;;;;;;;6.08;74.47;101779.13;231189;1192;140128;-65
2021/10/09 07:46:25;;;;;;;15.50;9.30;;;;;;;6.30;73.98;101784.23;231281;1192;138754;-68
2021/10/09 07:51:30;;;;;;;21.80;10.90;;;;;;;6.52;73.57;101784.51;230999;1192;139286;-68
2021/10/09 07:56:35;;;;;;;22.30;9.70;;;;;;;6.75;72.80;101781.16;231056;1190;138927;-66
2021/10/09 08:01:41;;;;;;;17.70;9.30;;;;;;;7.06;71.97;101778.11;230858;1190;140327;-66
2021/10/09 08:06:46;;;;;;;16.70;9.10;;;;;;;7.37;71.98;101775.89;230373;1190;139899;-67
2021/10/09 08:11:51;;;;;;;17.40;9.60;;;;;;;7.64;71.42;101776.63;230081;1190;140243;-67
2021/10/09 08:16:56;;;;;;;27.90;11.90;;;;;;;7.92;71.09;101785.82;229680;1192;140643;-68
2021/10/09 08:22:03;;;;;;;11.50;8.60;;;;;;;8.19;70.40;101789.04;229421;1191;162356;-66
2021/10/09 08:43:01;;;;;;;9.40;6.50;;;;;;;9.20;68.34;101779.45;228521;1192;140490;-66
2021/10/09 08:48:06;;;;;;;8.60;5.90;;;;;;;9.42;67.46;101777.35;229379;1192;143499;-67
2021/10/09 08:53:11;;;;;;;8.60;6.00;;;;;;;9.64;66.51;101779.34;229409;1192;139666;-69
2021/10/09 08:58:38;;;;;;;10.40;6.00;;;;;;;9.88;65.49;101782.42;230080;1192;139875;-66
2021/10/09 09:25:23;;;;;;;10.70;8.70;;;;;;;10.41;63.95;101781.66;230213;1192;140651;-68
2021/10/09 09:41:47;;;;;;;10.80;5.40;;;;;;;11.79;61.80;101776.83;231309;1191;139574;-69
2021/10/09 09:47:03;;;;;;;9.40;6.30;;;;;;;12.13;61.08;101770.43;230798;1192;141359;-68
2021/10/09 09:52:28;;;;;;;7.50;5.50;;;;;;;12.41;60.07;101771.60;231059;1192;140292;-71
2021/10/09 09:57:35;;;;;;;6.80;5.60;;;;;;;12.58;59.04;101769.63;230953;1191;140345;-67
2021/10/09 10:02:48;;;;;;;5.30;4.40;;;;;;;12.80;58.56;101764.42;230396;1192;139925;-67
2021/10/09 10:07:53;;;;;;;8.00;4.80;;;;;;;13.02;57.92;101760.46;230078;1192;139124;-69
2021/10/09 10:12:59;;;;;;;4.20;3.80;;;;;;;13.18;56.66;101759.58;229573;1184;139495;-70
2021/10/09 10:18:04;;;;;;;6.00;3.30;;;;;;;13.32;56.14;101754.52;230103;1192;140265;-67
2021/10/09 10:23:08;;;;;;;5.30;4.30;;;;;;;13.41;54.82;101752.27;230047;1191;139751;-70
2021/10/09 10:28:14;;;;;;;6.10;4.10;;;;;;;13.47;54.09;101746.98;229850;1192;140784;-69
2021/10/09 10:33:19;;;;;;;4.20;3.80;;;;;;;13.57;53.93;101740.77;230050;1192;139831;-70
2021/10/09 10:38:23;;;;;;;7.70;4.20;;;;;;;13.70;53.02;101741.77;229602;1192;140578;-71
2021/10/09 10:48:46;;;;;;;4.70;4.30;;;;;;;13.94;52.42;101734.89;229835;1192;140262;-69
2021/10/09 10:54:12;;;;;;;5.80;5.00;;;;;;;14.07;51.71;101735.57;230383;1192;139615;-70
2021/10/09 10:59:35;;;;;;;6.40;4.50;;;;;;;14.13;51.17;101729.41;229734;1186;142956;-69
2021/10/09 11:04:44;;;;;;;10.60;5.60;;;;;;;14.24;51.31;101722.42;229442;1192;140774;-69
2021/10/09 11:09:50;;;;;;;7.20;5.40;;;;;;;14.39;51.54;101719.86;229505;1192;141848;-68
2021/10/09 11:15:19;;;;;;;6.20;4.80;;;;;;;14.56;51.25;101723.27;230183;1192;141454;-70
2021/10/09 11:20:27;;;;;;;5.40;4.90;;;;;;;14.59;50.04;101716.77;229248;1192;140962;-69
2021/10/09 11:25:37;;;;;;;7.60;5.00;;;;;;;14.62;50.22;101714.66;230338;1192;142085;-69
2021/10/09 11:30:40;;;;;;;6.80;5.60;;;;;;;14.66;49.65;101716.70;230313;1192;140186;-68
2021/10/09 11:35:46;;;;;;;8.10;6.80;;;;;;;14.61;49.03;101711.68;230495;1192;139312;-67
2021/10/09 11:56:26;;;;;;;12.60;5.90;;;;;;;14.64;48.76;101698.08;231244;1192;138886;-69
2021/10/09 12:01:41;;;;;;;6.40;4.60;;;;;;;14.57;48.42;101698.81;230869;1190;140846;-68
2021/10/09 12:06:54;;;;;;;7.30;4.60;;;;;;;14.56;48.08;101692.00;230394;1190;149899;-71
2021/10/09 12:12:35;;;;;;;10.30;5.00;;;;;;;14.54;47.96;101687.05;230149;1192;139751;-70
2021/10/09 12:17:40;;;;;;;8.10;5.70;;;;;;;14.55;47.68;101682.71;230120;1192;139409;-69
2021/10/09 12:22:45;;;;;;;5.50;5.00;;;;;;;14.59;47.70;101677.46;230082;1190;140647;-70
2021/10/09 12:27:57;;;;;;;5.80;4.70;;;;;;;14.60;47.26;101674.45;229748;1192;139437;-69
2021/10/09 12:33:01;;;;;;;8.60;5.20;;;;;;;14.55;47.24;101671.69;229452;1192;141182;-70
2021/10/09 12:38:10;;;;;;;6.20;4.90;;;;;;;14.59;47.43;101669.73;229307;1192;142563;-68
2021/10/09 12:43:20;;;;;;;6.10;5.50;;;;;;;14.61;46.93;101666.42;228962;1192;152141;-68
2021/10/09 12:48:24;;;;;;;6.60;5.60;;;;;;;14.58;46.89;101654.88;229618;1192;140127;-68
2021/10/09 12:53:29;;;;;;;7.60;5.50;;;;;;;14.55;46.95;101657.77;229270;1192;142075;-68
2021/10/09 12:58:33;;;;;;;6.70;4.80;;;;;;;14.49;46.40;101661.11;229737;1192;140648;-69
2021/10/09 13:03:38;;;;;;;10.10;6.20;;;;;;;14.35;46.19;101657.39;229439;1192;141322;-69
2021/10/09 13:08:42;;;;;;;5.80;4.80;;;;;;;14.36;46.21;101653.59;230202;1192;139664;-68
2021/10/09 13:13:47;;;;;;;6.70;5.30;;;;;;;14.38;45.97;101651.66;230443;1192;138999;-68
2021/10/09 13:18:51;;;;;;;5.00;4.60;;;;;;;14.38;46.02;101650.60;230208;1192;139370;-69
2021/10/09 13:23:56;;;;;;;8.50;5.60;;;;;;;14.34;45.83;101643.73;228797;1192;138985;-68
2021/10/09 13:29:01;;;;;;;6.30;5.10;;;;;;;14.30;45.89;101640.41;230287;1192;138882;-68
2021/10/09 13:34:06;;;;;;;5.40;4.10;;;;;;;14.20;45.72;101635.08;230488;1192;140391;-69
2021/10/09 13:39:14;;;;;;;10.80;5.30;;;;;;;14.15;45.78;101628.81;230073;1192;139352;-72
2021/10/09 13:44:19;;;;;;;6.50;4.80;;;;;;;14.18;46.16;101629.80;231151;1192;140395;-70
2021/10/09 13:49:23;;;;;;;11.50;6.10;;;;;;;14.18;45.83;101628.07;230265;1184;139716;-72
2021/10/09 13:54:27;;;;;;;5.60;5.10;;;;;;;14.06;45.46;101626.80;231076;1192;140587;-73
2021/10/09 13:59:36;;;;;;;11.30;6.00;;;;;;;13.88;45.28;101619.66;231197;1192;139539;-72
2021/10/09 14:04:40;;;;;;;7.50;5.60;;;;;;;13.75;45.46;101621.72;231087;1192;139423;-73
2021/10/09 14:09:45;;;;;;;9.80;6.60;;;;;;;13.68;45.47;101615.84;230358;1192;140115;-69
2021/10/09 14:14:49;;;;;;;7.80;5.50;;;;;;;13.61;45.54;101614.98;230417;1191;139389;-69
2021/10/09 14:19:55;;;;;;;7.60;5.20;;;;;;;13.52;45.89;101617.46;229392;1192;140362;-68
2021/10/09 14:25:00;;;;;;;9.00;5.80;;;;;;;13.41;45.63;101614.56;229747;1192;159140;-69
2021/10/09 14:30:06;;;;;;;8.60;5.80;;;;;;;13.29;45.88;101611.15;229005;1192;139143;-68
2021/10/09 14:35:10;;;;;;;5.40;4.90;;;;;;;13.17;45.97;101611.27;230154;1192;139194;-70
2021/10/09 14:40:18;;;;;;;7.70;5.50;;;;;;;13.01;45.99;101608.82;229231;1192;139236;-68
2021/10/09 14:45:24;;;;;;;9.80;5.00;;;;;;;12.88;46.26;101605.95;230016;1192;139459;-69
2021/10/09 14:56:06;;;;;;;8.90;6.90;;;;;;;12.59;46.55;101597.95;229291;1192;140511;-76
2021/10/09 15:22:11;;;;;;;11.20;6.30;;;;;;;11.77;48.93;101591.46;229842;1192;139383;-68
2021/10/09 15:27:24;;;;;;;8.90;6.70;;;;;;;11.59;49.63;101592.29;230303;1191;139982;-68
2021/10/09 15:32:29;;;;;;;7.40;6.70;;;;;;;11.34;50.08;101587.64;230984;1192;140439;-70
2021/10/09 15:37:35;;;;;;;7.40;6.50;;;;;;;11.07;50.92;101589.73;230489;1192;140324;-70
2021/10/09 15:42:41;;;;;;;19.80;8.60;;;;;;;10.84;51.29;101593.73;230173;1192;139749;-71
2021/10/09 15:47:52;;;;;;;12.10;8.90;;;;;;;10.65;51.70;101590.80;230713;1192;140883;-71
2021/10/09 15:52:57;;;;;;;11.70;8.00;;;;;;;10.44;51.97;101591.99;230820;1192;140708;-71
2021/10/09 15:58:02;;;;;;;8.70;7.80;;;;;;;10.19;52.78;101592.40;230925;1192;140169;-72
2021/10/09 16:03:07;;;;;;;9.60;7.50;;;;;;;9.94;53.82;101590.09;229950;1192;141015;-71
2021/10/09 16:08:11;;;;;;;9.90;5.60;;;;;;;9.68;54.73;101586.45;230890;1191;140214;-71
2021/10/09 16:13:22;;;;;;;10.90;7.40;;;;;;;9.43;55.28;101585.04;230351;1192;139787;-71
2021/10/09 16:18:28;;;;;;;11.20;7.80;;;;;;;9.15;56.03;101585.91;229797;1192;140822;-72
2021/10/09 16:23:32;;;;;;;9.10;6.70;;;;;;;8.84;56.53;101585.68;230576;1192;139927;-72
2021/10/09 16:28:37;;;;;;;8.50;7.70;;;;;;;8.51;57.01;101583.49;229006;1192;140955;-69
2021/10/09 16:33:42;;;;;;;10.60;9.20;;;;;;;8.23;57.57;101586.65;230177;1192;140848;-68
2021/10/09 16:38:47;;;;;;;12.90;8.60;;;;;;;8.00;58.18;101592.81;229973;1192;140973;-69
2021/10/09 16:43:53;;;;;;;10.30;8.70;;;;;;;7.78;58.60;101595.64;229284;1193;139710;-68
2021/10/09 16:49:00;;;;;;;12.20;7.70;;;;;;;7.58;58.92;101592.91;229850;1192;139217;-68
2021/10/09 16:54:07;;;;;;;;;;;;;;;7.41;59.24;101594.23;229293;1192;139870;-69
2021/10/09 16:59:12;;;;;;;14.90;9.00;;;;;;;7.21;59.72;101593.86;230377;1192;125727;-68
2021/10/09 17:04:20;;;;;;;14.30;10.40;;;;;;;6.92;60.14;101598.59;229218;1192;234900;-67
2021/10/09 17:09:27;;;;;;;16.60;11.20;;;;;;;6.73;60.92;101598.68;229130;1192;141215;-68
2021/10/09 17:14:32;;;;;;;15.60;9.10;;;;;;;6.59;61.40;101599.12;230128;1192;142717;-70
2021/10/09 17:19:38;;;;;;;21.10;13.30;;;;;;;6.35;61.71;101591.59;230747;1192;152251;-68
2021/10/09 17:24:44;;;;;;;25.50;14.90;;;;;;;6.20;62.12;101589.13;230601;1192;153275;-67
2021/10/09 17:29:49;;;;;;;15.10;9.80;;;;;;;6.04;62.34;101592.27;229485;1192;140905;-69
2021/10/09 17:34:53;;;;;;;20.00;10.50;;;;;;;5.79;62.68;101598.58;230375;1192;140110;-69
2021/10/09 17:39:58;;;;;;;27.30;15.70;;;;;;;5.57;63.03;101599.46;228952;1192;140229;-66
2021/10/09 17:45:03;;;;;;;46.40;22.90;;;;;;;5.48;63.60;101601.72;230336;1190;140242;-67
2021/10/09 17:50:07;;;;;;;34.90;20.70;;;;;;;5.50;64.22;101608.20;231334;1190;141587;-70
2021/10/09 17:55:13;;;;;;;32.80;19.10;;;;;;;5.50;64.28;101604.77;229772;1192;141240;-69
2021/10/09 18:00:19;;;;;;;35.50;18.30;;;;;;;5.39;63.99;101603.34;229684;1184;140228;-71
2021/10/09 18:05:25;;;;;;;53.00;27.20;;;;;;;5.24;64.63;101604.39;231008;1190;140268;-69
2021/10/09 18:10:30;;;;;;;59.00;29.90;;;;;;;5.13;64.89;101602.52;229708;1190;140296;-68
2021/10/09 18:15:36;;;;;;;60.70;35.10;;;;;;;5.00;64.86;101596.59;230657;1191;140138;-70
2021/10/09 18:20:40;;;;;;;63.40;35.30;;;;;;;4.94;65.23;101596.67;229985;1190;140828;-71
2021/10/09 18:25:45;;;;;;;57.40;31.10;;;;;;;4.88;65.42;101595.25;230196;1177;140123;-70
2021/10/09 18:30:49;;;;;;;69.10;34.20;;;;;;;4.80;65.41;101594.19;229629;1190;139636;-70
2021/10/09 18:35:54;;;;;;;75.30;37.90;;;;;;;4.66;66.00;101594.35;230134;1192;143064;-70
2021/10/09 18:40:59;;;;;;;63.30;31.70;;;;;;;4.56;66.09;101594.31;229767;1192;163921;-70
2021/10/09 18:46:04;;;;;;;74.50;39.00;;;;;;;4.35;66.09;101590.84;229256;1192;140612;-71
2021/10/09 18:51:08;;;;;;;72.50;36.10;;;;;;;4.25;66.57;101588.65;229736;1192;139844;-69
2021/10/09 18:56:14;;;;;;;55.50;28.50;;;;;;;4.18;66.44;101593.30;229038;1193;140668;-71
2021/10/09 19:01:19;;;;;;;63.50;31.30;;;;;;;4.10;66.92;101588.05;229312;1192;142881;-69
2021/10/09 19:06:24;;;;;;;65.40;34.40;;;;;;;4.04;67.33;101591.38;229278;1192;141489;-70
2021/10/09 19:11:29;;;;;;;59.60;30.80;;;;;;;3.99;67.57;101591.20;229587;1192;141074;-69
2021/10/09 19:16:34;;;;;;;74.20;38.70;;;;;;;3.87;67.56;101594.32;229520;1192;140627;-68
2021/10/09 19:21:40;;;;;;;64.90;33.50;;;;;;;3.76;67.94;101602.17;229213;1192;142273;-68
2021/10/09 19:26:45;;;;;;;66.90;30.10;;;;;;;3.65;68.01;101599.34;229081;1192;230761;-71
2021/10/09 19:31:52;;;;;;;83.00;36.30;;;;;;;3.64;68.15;101601.55;230278;1193;139469;-67
2021/10/09 19:37:31;;;;;;;;;;;;;;;3.68;68.48;101603.62;230740;1190;140711;-67
2021/10/09 19:42:28;;;;;;;68.80;35.80;;;;;;;3.64;69.05;101607.54;230806;1192;126689;-71
2021/10/09 19:47:33;;;;;;;57.00;31.30;;;;;;;3.52;68.63;101604.07;230815;1192;140835;-67
2021/10/09 19:52:41;;;;;;;58.50;28.50;;;;;;;3.33;68.45;101605.38;230086;1192;139850;-66
2021/10/09 19:57:46;;;;;;;71.10;33.10;;;;;;;3.16;68.34;101604.87;231342;1192;140455;-69
2021/10/09 20:02:50;;;;;;;71.10;35.30;;;;;;;3.11;68.69;101604.04;229895;1193;205827;-66
2021/10/09 20:07:54;;;;;;;63.10;33.50;;;;;;;3.10;68.97;101604.52;229850;1192;140880;-66
2021/10/09 20:12:58;;;;;;;50.20;26.50;;;;;;;3.05;69.50;101606.19;229817;1192;139787;-66
2021/10/09 20:18:04;;;;;;;52.70;27.40;;;;;;;2.94;69.23;101605.95;230346;1192;139349;-67
2021/10/09 20:23:11;;;;;;;46.30;24.10;;;;;;;2.81;69.37;101598.67;229626;1192;139988;-68
2021/10/09 20:28:15;;;;;;;38.10;23.30;;;;;;;2.69;69.69;101594.92;230331;1192;139713;-69
2021/10/09 20:33:20;;;;;;;54.60;26.60;;;;;;;2.56;69.68;101598.89;230214;1192;139629;-66
2021/10/09 20:38:24;;;;;;;61.10;30.50;;;;;;;2.51;69.74;101595.09;229443;1192;140872;-66
2021/10/09 20:43:34;;;;;;;75.80;42.00;;;;;;;2.48;69.85;101597.33;229383;1192;139787;-65
2021/10/09 20:48:39;;;;;;;64.90;38.10;;;;;;;2.40;69.94;101597.17;230207;1192;140352;-65
2021/10/09 20:53:44;;;;;;;89.40;44.40;;;;;;;2.33;70.22;101600.73;229434;1193;141695;-65
2021/10/09 20:58:49;;;;;;;89.40;43.70;;;;;;;2.27;70.70;101598.63;229673;1192;144226;-64
2021/10/09 21:03:53;;;;;;;96.90;44.30;;;;;;;2.25;70.90;101597.99;229728;1192;140648;-64
2021/10/09 21:09:00;;;;;;;93.50;49.00;;;;;;;2.22;70.41;101593.88;229713;1192;207284;-66
2021/10/09 21:21:52;;;;;;;75.80;43.10;;;;;;;2.18;70.93;101586.45;229025;1195;140049;-66
2021/10/09 21:25:21;;;;;;;81.80;42.80;;;;;;;2.12;71.01;101578.84;230001;1191;139034;-66
2021/10/09 21:30:29;;;;;;;112.10;59.00;;;;;;;2.07;71.15;101576.42;229337;1190;141316;-65
2021/10/09 21:35:34;;;;;;;113.80;53.50;;;;;;;2.06;71.42;101578.10;230487;1192;140243;-66
2021/10/09 21:40:39;;;;;;;98.50;52.30;;;;;;;2.08;71.50;101577.58;229872;1192;140795;-64
2021/10/09 21:45:44;;;;;;;87.60;45.20;;;;;;;2.03;71.28;101571.64;229696;1191;139933;-64
2021/10/09 21:50:47;;;;;;;86.60;46.80;;;;;;;1.94;71.16;101569.52;230872;1192;150271;-66
2021/10/09 21:55:52;;;;;;;91.10;52.60;;;;;;;1.81;71.15;101563.44;230701;1192;139300;-68
2021/10/09 22:01:45;;;;;;;75.10;44.40;;;;;;;1.71;71.67;101559.05;230104;1192;139179;-67
2021/10/09 22:17:26;;;;;;;71.60;45.00;;;;;;;1.57;71.62;101549.38;230621;1192;140284;-66
2021/10/09 22:33:07;;;;;;;57.10;37.10;;;;;;;1.43;72.27;101548.15;229571;1192;140195;-64
2021/10/09 22:38:11;;;;;;;59.40;34.60;;;;;;;1.40;72.50;101546.02;229866;1192;232360;-64
2021/10/09 22:43:18;;;;;;;60.90;37.20;;;;;;;1.43;72.69;101544.52;229016;1192;141188;-67
2021/10/09 22:48:24;;;;;;;71.90;38.80;;;;;;;1.37;72.35;101541.66;230025;1192;139800;-65
2021/10/09 22:53:30;;;;;;;64.20;39.90;;;;;;;1.27;72.46;101537.48;229277;1193;139164;-66
2021/10/09 22:58:34;;;;;;;56.70;32.50;;;;;;;1.17;72.69;101532.01;229998;1192;140572;-67
2021/10/09 23:03:39;;;;;;;63.50;36.80;;;;;;;1.08;72.55;101531.01;229577;1187;140242;-67
2021/10/09 23:08:43;;;;;;;76.60;44.10;;;;;;;1.08;72.84;101526.66;229936;1192;141503;-66
2021/10/09 23:13:48;;;;;;;82.40;49.40;;;;;;;1.07;72.94;101528.82;229423;1192;141288;-67
2021/10/09 23:18:54;;;;;;;97.40;55.40;;;;;;;1.07;73.31;101522.89;230020;1192;139436;-67
2021/10/09 23:23:58;;;;;;;69.60;43.20;;;;;;;1.07;73.13;101524.70;230001;1192;139498;-65
2021/10/09 23:29:03;;;;;;;77.80;44.50;;;;;;;1.04;73.51;101524.40;230228;1192;139390;-68
2021/10/09 23:34:07;;;;;;;67.70;37.30;;;;;;;1.04;73.77;101523.88;230517;1192;139510;-66
2021/10/09 23:39:12;;;;;;;68.40;42.10;;;;;;;1.06;73.14;101524.05;230933;1192;139611;-65
2021/10/09 23:44:17;;;;;;;60.30;38.40;;;;;;;1.04;73.55;101522.60;230991;1192;139263;-65
2021/10/09 23:49:21;;;;;;;60.60;35.30;;;;;;;0.96;72.84;101520.79;230925;1192;140294;-67
2021/10/09 23:54:26;;;;;;;56.50;36.30;;;;;;;0.89;73.49;101513.21;230588;1192;140145;-65
2021/10/09 23:59:30;;;;;;;74.20;46.80;;;;;;;0.83;73.38;101509.00;230785;1192;139654;-65
